sensor_id;sensor_type;location;lat;lon;timestamp;P1;durP1;ratioP1;P2;durP2;ratioP2
70733;SDS011;58320;48.804;9.252;2023-02-11T00:00:34;43.60;;;21.03;;
70733;SDS011;58320;48.804;9.252;2023-02-11T00:03:03;40.67;;;20.25;;
70733;SDS011;58320;48.804;9.252;2023-02-11T00:05:28;42.10;;;20.70;;
70733;SDS011;58320;48.804;9.252;2023-02-11T00:07:54;42.30;;;21.10;;
70733;SDS011;58320;48.804;9.252;2023-02-11T00:10:20;42.15;;;21.45;;
70733;SDS011;58320;48.804;9.252;2023-02-11T00:12:46;39.33;;;19.00;;
70733;SDS011;58320;48.804;9.252;2023-02-11T00:15:11;47.67;;;21.33;;
70733;SDS011;58320;48.804;9.252;2023-02-11T00:17:37;44.93;;;20.47;;
70733;SDS011;58320;48.804;9.252;2023-02-11T00:20:03;42.28;;;20.00;;
70733;SDS011;58320;48.804;9.252;2023-02-11T00:22:29;41.55;;;18.63;;
70733;SDS011;58320;48.804;9.252;2023-02-11T00:24:55;45.38;;;20.40;;
70733;SDS011;58320;48.804;9.252;2023-02-11T00:27:21;40.73;;;19.60;;
70733;SDS011;58320;48.804;9.252;2023-02-11T00:29:47;42.55;;;19.90;;
70733;SDS011;58320;48.804;9.252;2023-02-11T00:32:13;43.57;;;19.57;;
70733;SDS011;58320;48.804;9.252;2023-02-11T00:34:39;46.13;;;20.33;;
70733;SDS011;58320;48.804;9.252;2023-02-11T00:37:04;46.15;;;19.70;;
70733;SDS011;58320;48.804;9.252;2023-02-11T00:39:30;44.40;;;20.87;;
70733;SDS011;58320;48.804;9.252;2023-02-11T00:41:56;45.70;;;21.27;;
70733;SDS011;58320;48.804;9.252;2023-02-11T00:44:23;42.45;;;20.58;;
70733;SDS011;58320;48.804;9.252;2023-02-11T00:46:49;48.72;;;22.13;;
70733;SDS011;58320;48.804;9.252;2023-02-11T00:49:15;54.10;;;22.23;;
70733;SDS011;58320;48.804;9.252;2023-02-11T00:51:41;40.28;;;19.95;;
70733;SDS011;58320;48.804;9.252;2023-02-11T00:54:07;44.45;;;19.95;;
70733;SDS011;58320;48.804;9.252;2023-02-11T00:56:33;44.00;;;20.43;;
70733;SDS011;58320;48.804;9.252;2023-02-11T00:58:59;41.33;;;20.48;;
70733;SDS011;58320;48.804;9.252;2023-02-11T01:01:25;45.38;;;20.17;;
70733;SDS011;58320;48.804;9.252;2023-02-11T01:03:50;37.40;;;18.27;;
70733;SDS011;58320;48.804;9.252;2023-02-11T01:06:16;47.65;;;20.80;;
70733;SDS011;58320;48.804;9.252;2023-02-11T01:08:43;45.03;;;21.15;;
70733;SDS011;58320;48.804;9.252;2023-02-11T01:11:13;43.57;;;21.03;;
70733;SDS011;58320;48.804;9.252;2023-02-11T01:13:42;40.92;;;18.65;;
70733;SDS011;58320;48.804;9.252;2023-02-11T01:16:09;42.28;;;19.60;;
70733;SDS011;58320;48.804;9.252;2023-02-11T01:18:36;41.03;;;19.42;;
70733;SDS011;58320;48.804;9.252;2023-02-11T01:21:02;47.42;;;20.55;;
70733;SDS011;58320;48.804;9.252;2023-02-11T01:23:28;43.97;;;19.37;;
70733;SDS011;58320;48.804;9.252;2023-02-11T01:25:55;41.88;;;20.02;;
70733;SDS011;58320;48.804;9.252;2023-02-11T01:28:22;39.42;;;18.63;;
70733;SDS011;58320;48.804;9.252;2023-02-11T01:30:50;38.38;;;17.70;;
70733;SDS011;58320;48.804;9.252;2023-02-11T01:33:17;39.10;;;19.10;;
70733;SDS011;58320;48.804;9.252;2023-02-11T01:35:43;39.93;;;19.47;;
70733;SDS011;58320;48.804;9.252;2023-02-11T01:38:16;39.92;;;19.83;;
70733;SDS011;58320;48.804;9.252;2023-02-11T01:40:49;39.63;;;19.13;;
70733;SDS011;58320;48.804;9.252;2023-02-11T01:43:30;42.22;;;20.80;;
70733;SDS011;58320;48.804;9.252;2023-02-11T01:46:13;46.28;;;20.42;;
70733;SDS011;58320;48.804;9.252;2023-02-11T01:48:58;41.67;;;19.30;;
70733;SDS011;58320;48.804;9.252;2023-02-11T01:51:34;40.80;;;19.38;;
70733;SDS011;58320;48.804;9.252;2023-02-11T01:54:09;40.20;;;19.75;;
70733;SDS011;58320;48.804;9.252;2023-02-11T01:56:58;38.78;;;19.10;;
70733;SDS011;58320;48.804;9.252;2023-02-11T01:59:51;42.60;;;20.98;;
70733;SDS011;58320;48.804;9.252;2023-02-11T02:02:19;38.33;;;18.73;;
70733;SDS011;58320;48.804;9.252;2023-02-11T02:10:57;46.95;;;19.10;;
70733;SDS011;58320;48.804;9.252;2023-02-11T02:13:25;37.95;;;19.45;;
70733;SDS011;58320;48.804;9.252;2023-02-11T02:16:00;40.13;;;19.10;;
70733;SDS011;58320;48.804;9.252;2023-02-11T02:30:15;37.63;;;19.80;;
70733;SDS011;58320;48.804;9.252;2023-02-11T02:33:23;40.58;;;18.50;;
70733;SDS011;58320;48.804;9.252;2023-02-11T02:47:16;41.13;;;18.47;;
70733;SDS011;58320;48.804;9.252;2023-02-11T02:49:42;37.80;;;19.63;;
70733;SDS011;58320;48.804;9.252;2023-02-11T02:52:15;37.50;;;19.05;;
70733;SDS011;58320;48.804;9.252;2023-02-11T03:00:28;41.25;;;18.58;;
70733;SDS011;58320;48.804;9.252;2023-02-11T03:06:04;37.47;;;18.13;;
70733;SDS011;58320;48.804;9.252;2023-02-11T03:08:47;36.57;;;17.63;;
70733;SDS011;58320;48.804;9.252;2023-02-11T03:11:21;39.05;;;19.27;;
70733;SDS011;58320;48.804;9.252;2023-02-11T03:13:48;40.58;;;18.55;;
70733;SDS011;58320;48.804;9.252;2023-02-11T03:16:20;39.45;;;19.67;;
70733;SDS011;58320;48.804;9.252;2023-02-11T03:19:02;44.80;;;20.88;;
70733;SDS011;58320;48.804;9.252;2023-02-11T03:21:38;39.73;;;18.70;;
70733;SDS011;58320;48.804;9.252;2023-02-11T03:24:09;42.00;;;20.48;;
70733;SDS011;58320;48.804;9.252;2023-02-11T03:26:53;36.25;;;19.45;;
70733;SDS011;58320;48.804;9.252;2023-02-11T03:29:32;42.30;;;18.70;;
70733;SDS011;58320;48.804;9.252;2023-02-11T03:38:37;36.72;;;17.65;;
70733;SDS011;58320;48.804;9.252;2023-02-11T03:41:09;40.15;;;18.75;;
70733;SDS011;58320;48.804;9.252;2023-02-11T03:43:39;39.25;;;18.67;;
70733;SDS011;58320;48.804;9.252;2023-02-11T03:46:10;34.60;;;16.80;;
70733;SDS011;58320;48.804;9.252;2023-02-11T03:48:42;33.77;;;17.27;;
70733;SDS011;58320;48.804;9.252;2023-02-11T03:51:13;36.53;;;17.67;;
70733;SDS011;58320;48.804;9.252;2023-02-11T03:53:42;37.05;;;18.13;;
70733;SDS011;58320;48.804;9.252;2023-02-11T03:56:10;37.15;;;18.50;;
70733;SDS011;58320;48.804;9.252;2023-02-11T03:58:45;35.83;;;17.95;;
70733;SDS011;58320;48.804;9.252;2023-02-11T04:01:12;39.13;;;17.73;;
70733;SDS011;58320;48.804;9.252;2023-02-11T04:03:38;32.38;;;16.73;;
70733;SDS011;58320;48.804;9.252;2023-02-11T04:06:03;37.30;;;18.13;;
70733;SDS011;58320;48.804;9.252;2023-02-11T04:08:29;39.10;;;19.13;;
70733;SDS011;58320;48.804;9.252;2023-02-11T04:10:56;38.05;;;18.80;;
70733;SDS011;58320;48.804;9.252;2023-02-11T04:13:23;38.22;;;19.00;;
70733;SDS011;58320;48.804;9.252;2023-02-11T04:15:49;40.63;;;18.52;;
70733;SDS011;58320;48.804;9.252;2023-02-11T04:18:15;37.03;;;17.70;;
70733;SDS011;58320;48.804;9.252;2023-02-11T04:20:41;40.08;;;18.50;;
70733;SDS011;58320;48.804;9.252;2023-02-11T04:23:06;36.80;;;17.23;;
70733;SDS011;58320;48.804;9.252;2023-02-11T04:25:32;35.97;;;16.87;;
70733;SDS011;58320;48.804;9.252;2023-02-11T04:27:58;35.13;;;17.98;;
70733;SDS011;58320;48.804;9.252;2023-02-11T04:30:24;34.27;;;17.93;;
70733;SDS011;58320;48.804;9.252;2023-02-11T04:32:49;38.65;;;18.65;;
70733;SDS011;58320;48.804;9.252;2023-02-11T04:35:15;38.47;;;17.77;;
70733;SDS011;58320;48.804;9.252;2023-02-11T04:37:41;34.72;;;17.10;;
70733;SDS011;58320;48.804;9.252;2023-02-11T04:40:07;34.05;;;17.15;;
70733;SDS011;58320;48.804;9.252;2023-02-11T04:42:33;37.75;;;18.33;;
70733;SDS011;58320;48.804;9.252;2023-02-11T04:44:59;41.93;;;18.73;;
70733;SDS011;58320;48.804;9.252;2023-02-11T04:47:25;34.70;;;18.00;;
70733;SDS011;58320;48.804;9.252;2023-02-11T04:49:51;36.30;;;18.93;;
70733;SDS011;58320;48.804;9.252;2023-02-11T04:52:17;37.83;;;18.77;;
70733;SDS011;58320;48.804;9.252;2023-02-11T04:54:43;40.73;;;19.67;;
70733;SDS011;58320;48.804;9.252;2023-02-11T04:57:09;37.10;;;18.63;;
70733;SDS011;58320;48.804;9.252;2023-02-11T04:59:35;38.10;;;18.95;;
70733;SDS011;58320;48.804;9.252;2023-02-11T05:02:01;39.37;;;18.80;;
70733;SDS011;58320;48.804;9.252;2023-02-11T05:04:28;38.08;;;18.13;;
70733;SDS011;58320;48.804;9.252;2023-02-11T05:06:53;34.08;;;16.58;;
70733;SDS011;58320;48.804;9.252;2023-02-11T05:09:19;35.87;;;18.00;;
70733;SDS011;58320;48.804;9.252;2023-02-11T05:11:45;38.85;;;18.73;;
70733;SDS011;58320;48.804;9.252;2023-02-11T05:14:11;34.78;;;17.65;;
70733;SDS011;58320;48.804;9.252;2023-02-11T05:16:37;36.80;;;19.17;;
70733;SDS011;58320;48.804;9.252;2023-02-11T05:19:02;38.95;;;19.23;;
70733;SDS011;58320;48.804;9.252;2023-02-11T05:21:28;38.93;;;18.53;;
70733;SDS011;58320;48.804;9.252;2023-02-11T05:23:54;37.83;;;20.13;;
70733;SDS011;58320;48.804;9.252;2023-02-11T05:26:20;40.22;;;19.40;;
70733;SDS011;58320;48.804;9.252;2023-02-11T05:28:45;37.63;;;20.00;;
70733;SDS011;58320;48.804;9.252;2023-02-11T05:31:11;38.13;;;20.38;;
70733;SDS011;58320;48.804;9.252;2023-02-11T05:33:38;37.97;;;19.35;;
70733;SDS011;58320;48.804;9.252;2023-02-11T05:36:06;35.30;;;18.95;;
70733;SDS011;58320;48.804;9.252;2023-02-11T05:38:35;37.87;;;17.67;;
70733;SDS011;58320;48.804;9.252;2023-02-11T05:41:01;36.97;;;18.65;;
70733;SDS011;58320;48.804;9.252;2023-02-11T05:43:28;36.13;;;18.67;;
70733;SDS011;58320;48.804;9.252;2023-02-11T05:45:54;37.38;;;18.40;;
70733;SDS011;58320;48.804;9.252;2023-02-11T05:48:20;36.50;;;17.10;;
70733;SDS011;58320;48.804;9.252;2023-02-11T05:50:45;32.70;;;17.20;;
70733;SDS011;58320;48.804;9.252;2023-02-11T05:53:11;32.27;;;16.57;;
70733;SDS011;58320;48.804;9.252;2023-02-11T05:55:37;34.67;;;16.92;;
70733;SDS011;58320;48.804;9.252;2023-02-11T05:58:03;34.17;;;17.02;;
70733;SDS011;58320;48.804;9.252;2023-02-11T06:00:30;35.87;;;16.70;;
70733;SDS011;58320;48.804;9.252;2023-02-11T06:02:56;38.80;;;17.02;;
70733;SDS011;58320;48.804;9.252;2023-02-11T06:05:22;32.13;;;16.23;;
70733;SDS011;58320;48.804;9.252;2023-02-11T06:07:47;35.93;;;17.27;;
70733;SDS011;58320;48.804;9.252;2023-02-11T06:10:13;32.85;;;17.20;;
70733;SDS011;58320;48.804;9.252;2023-02-11T06:12:39;31.87;;;16.37;;
70733;SDS011;58320;48.804;9.252;2023-02-11T06:15:05;29.95;;;16.30;;
70733;SDS011;58320;48.804;9.252;2023-02-11T06:17:31;34.38;;;17.33;;
70733;SDS011;58320;48.804;9.252;2023-02-11T06:20:01;31.20;;;15.13;;
70733;SDS011;58320;48.804;9.252;2023-02-11T06:22:30;29.07;;;15.27;;
70733;SDS011;58320;48.804;9.252;2023-02-11T06:24:56;33.83;;;16.35;;
70733;SDS011;58320;48.804;9.252;2023-02-11T06:27:22;30.35;;;15.95;;
70733;SDS011;58320;48.804;9.252;2023-02-11T06:29:47;29.90;;;15.67;;
70733;SDS011;58320;48.804;9.252;2023-02-11T06:32:13;31.70;;;16.15;;
70733;SDS011;58320;48.804;9.252;2023-02-11T06:34:39;30.67;;;15.98;;
70733;SDS011;58320;48.804;9.252;2023-02-11T06:37:05;30.90;;;15.87;;
70733;SDS011;58320;48.804;9.252;2023-02-11T06:39:31;32.55;;;16.48;;
70733;SDS011;58320;48.804;9.252;2023-02-11T06:41:57;32.90;;;16.75;;
70733;SDS011;58320;48.804;9.252;2023-02-11T06:44:22;34.33;;;17.37;;
70733;SDS011;58320;48.804;9.252;2023-02-11T06:46:48;31.45;;;17.10;;
70733;SDS011;58320;48.804;9.252;2023-02-11T06:49:14;34.90;;;17.67;;
70733;SDS011;58320;48.804;9.252;2023-02-11T06:51:40;36.50;;;17.10;;
70733;SDS011;58320;48.804;9.252;2023-02-11T06:54:06;34.60;;;16.67;;
70733;SDS011;58320;48.804;9.252;2023-02-11T06:56:32;31.38;;;17.23;;
70733;SDS011;58320;48.804;9.252;2023-02-11T06:58:58;31.87;;;16.50;;
70733;SDS011;58320;48.804;9.252;2023-02-11T07:01:25;38.20;;;16.75;;
70733;SDS011;58320;48.804;9.252;2023-02-11T07:03:51;34.13;;;17.27;;
70733;SDS011;58320;48.804;9.252;2023-02-11T07:06:19;33.33;;;17.25;;
70733;SDS011;58320;48.804;9.252;2023-02-11T07:08:48;32.25;;;17.30;;
70733;SDS011;58320;48.804;9.252;2023-02-11T07:11:16;34.13;;;18.20;;
70733;SDS011;58320;48.804;9.252;2023-02-11T07:13:45;35.08;;;18.00;;
70733;SDS011;58320;48.804;9.252;2023-02-11T07:16:13;30.75;;;16.33;;
70733;SDS011;58320;48.804;9.252;2023-02-11T07:18:41;29.02;;;15.98;;
70733;SDS011;58320;48.804;9.252;2023-02-11T07:21:08;31.20;;;16.00;;
70733;SDS011;58320;48.804;9.252;2023-02-11T07:23:36;32.03;;;16.00;;
70733;SDS011;58320;48.804;9.252;2023-02-11T07:26:08;30.88;;;16.00;;
70733;SDS011;58320;48.804;9.252;2023-02-11T07:28:36;32.22;;;17.70;;
70733;SDS011;58320;48.804;9.252;2023-02-11T07:31:11;32.90;;;14.73;;
70733;SDS011;58320;48.804;9.252;2023-02-11T07:33:48;33.63;;;15.90;;
70733;SDS011;58320;48.804;9.252;2023-02-11T07:36:17;35.60;;;17.30;;
70733;SDS011;58320;48.804;9.252;2023-02-11T07:38:43;30.73;;;16.65;;
70733;SDS011;58320;48.804;9.252;2023-02-11T07:41:10;33.55;;;17.67;;
70733;SDS011;58320;48.804;9.252;2023-02-11T07:43:39;33.83;;;18.52;;
70733;SDS011;58320;48.804;9.252;2023-02-11T07:46:06;35.15;;;17.88;;
70733;SDS011;58320;48.804;9.252;2023-02-11T07:48:35;36.77;;;16.73;;
70733;SDS011;58320;48.804;9.252;2023-02-11T07:51:08;31.90;;;16.65;;
70733;SDS011;58320;48.804;9.252;2023-02-11T07:53:37;29.90;;;16.20;;
70733;SDS011;58320;48.804;9.252;2023-02-11T07:56:03;34.22;;;17.02;;
70733;SDS011;58320;48.804;9.252;2023-02-11T07:58:30;33.00;;;17.43;;
70733;SDS011;58320;48.804;9.252;2023-02-11T08:01:01;32.53;;;16.92;;
70733;SDS011;58320;48.804;9.252;2023-02-11T08:03:29;34.33;;;17.58;;
70733;SDS011;58320;48.804;9.252;2023-02-11T08:05:55;35.33;;;17.97;;
70733;SDS011;58320;48.804;9.252;2023-02-11T08:08:20;34.63;;;17.27;;
70733;SDS011;58320;48.804;9.252;2023-02-11T08:10:46;30.90;;;17.35;;
70733;SDS011;58320;48.804;9.252;2023-02-11T08:13:12;31.37;;;16.93;;
70733;SDS011;58320;48.804;9.252;2023-02-11T08:15:38;29.38;;;17.10;;
70733;SDS011;58320;48.804;9.252;2023-02-11T08:18:03;39.10;;;17.73;;
70733;SDS011;58320;48.804;9.252;2023-02-11T08:20:29;33.85;;;16.88;;
70733;SDS011;58320;48.804;9.252;2023-02-11T08:22:55;30.07;;;17.50;;
70733;SDS011;58320;48.804;9.252;2023-02-11T08:25:20;32.63;;;17.17;;
70733;SDS011;58320;48.804;9.252;2023-02-11T08:27:46;31.33;;;16.10;;
70733;SDS011;58320;48.804;9.252;2023-02-11T08:30:12;29.73;;;16.10;;
70733;SDS011;58320;48.804;9.252;2023-02-11T08:32:38;26.65;;;15.38;;
70733;SDS011;58320;48.804;9.252;2023-02-11T08:35:04;34.67;;;16.87;;
70733;SDS011;58320;48.804;9.252;2023-02-11T08:37:36;31.67;;;16.35;;
70733;SDS011;58320;48.804;9.252;2023-02-11T08:40:02;29.15;;;17.02;;
70733;SDS011;58320;48.804;9.252;2023-02-11T08:42:28;35.30;;;17.67;;
70733;SDS011;58320;48.804;9.252;2023-02-11T08:44:54;31.67;;;17.43;;
70733;SDS011;58320;48.804;9.252;2023-02-11T08:47:20;32.17;;;16.02;;
70733;SDS011;58320;48.804;9.252;2023-02-11T08:49:45;27.67;;;15.87;;
70733;SDS011;58320;48.804;9.252;2023-02-11T08:52:11;29.50;;;15.15;;
70733;SDS011;58320;48.804;9.252;2023-02-11T08:54:37;30.93;;;15.17;;
70733;SDS011;58320;48.804;9.252;2023-02-11T08:57:03;26.45;;;14.02;;
70733;SDS011;58320;48.804;9.252;2023-02-11T08:59:29;29.48;;;15.88;;
70733;SDS011;58320;48.804;9.252;2023-02-11T09:01:55;30.70;;;14.80;;
70733;SDS011;58320;48.804;9.252;2023-02-11T09:04:21;29.38;;;16.05;;
70733;SDS011;58320;48.804;9.252;2023-02-11T09:06:47;29.92;;;15.93;;
70733;SDS011;58320;48.804;9.252;2023-02-11T09:09:13;29.33;;;16.10;;
70733;SDS011;58320;48.804;9.252;2023-02-11T09:11:40;31.58;;;15.95;;
70733;SDS011;58320;48.804;9.252;2023-02-11T09:14:10;32.38;;;16.40;;
70733;SDS011;58320;48.804;9.252;2023-02-11T09:16:45;31.80;;;16.20;;
70733;SDS011;58320;48.804;9.252;2023-02-11T09:19:12;30.47;;;16.13;;
70733;SDS011;58320;48.804;9.252;2023-02-11T09:21:37;29.13;;;15.77;;
70733;SDS011;58320;48.804;9.252;2023-02-11T09:24:03;29.98;;;16.00;;
70733;SDS011;58320;48.804;9.252;2023-02-11T09:26:31;27.10;;;15.05;;
70733;SDS011;58320;48.804;9.252;2023-02-11T09:28:59;28.03;;;15.63;;
70733;SDS011;58320;48.804;9.252;2023-02-11T09:31:27;27.75;;;16.63;;
70733;SDS011;58320;48.804;9.252;2023-02-11T09:33:56;30.67;;;17.13;;
70733;SDS011;58320;48.804;9.252;2023-02-11T09:36:32;30.08;;;18.23;;
70733;SDS011;58320;48.804;9.252;2023-02-11T09:39:03;26.98;;;17.10;;
70733;SDS011;58320;48.804;9.252;2023-02-11T09:41:34;30.50;;;17.67;;
70733;SDS011;58320;48.804;9.252;2023-02-11T09:44:21;29.65;;;16.27;;
70733;SDS011;58320;48.804;9.252;2023-02-11T09:46:57;34.97;;;18.83;;
70733;SDS011;58320;48.804;9.252;2023-02-11T09:49:46;31.77;;;18.02;;
70733;SDS011;58320;48.804;9.252;2023-02-11T09:54:55;33.43;;;17.63;;
70733;SDS011;58320;48.804;9.252;2023-02-11T09:57:33;29.77;;;16.70;;
70733;SDS011;58320;48.804;9.252;2023-02-11T10:00:01;33.15;;;17.10;;
70733;SDS011;58320;48.804;9.252;2023-02-11T10:11:35;29.48;;;16.40;;
70733;SDS011;58320;48.804;9.252;2023-02-11T10:14:17;27.45;;;16.38;;
70733;SDS011;58320;48.804;9.252;2023-02-11T10:17:16;24.80;;;14.75;;
70733;SDS011;58320;48.804;9.252;2023-02-11T10:20:38;23.90;;;14.35;;
70733;SDS011;58320;48.804;9.252;2023-02-11T10:23:16;30.33;;;15.27;;
70733;SDS011;58320;48.804;9.252;2023-02-11T10:25:49;24.75;;;15.48;;
70733;SDS011;58320;48.804;9.252;2023-02-11T10:28:19;25.00;;;14.15;;
70733;SDS011;58320;48.804;9.252;2023-02-11T10:31:09;26.20;;;14.35;;
70733;SDS011;58320;48.804;9.252;2023-02-11T10:36:09;23.53;;;13.43;;
70733;SDS011;58320;48.804;9.252;2023-02-11T10:38:37;24.33;;;14.07;;
70733;SDS011;58320;48.804;9.252;2023-02-11T10:41:03;24.27;;;14.13;;
70733;SDS011;58320;48.804;9.252;2023-02-11T10:43:30;24.23;;;13.37;;
70733;SDS011;58320;48.804;9.252;2023-02-11T10:45:57;24.75;;;14.18;;
70733;SDS011;58320;48.804;9.252;2023-02-11T10:48:43;24.20;;;14.75;;
70733;SDS011;58320;48.804;9.252;2023-02-11T10:53:43;23.35;;;13.05;;
70733;SDS011;58320;48.804;9.252;2023-02-11T10:56:12;20.57;;;12.37;;
70733;SDS011;58320;48.804;9.252;2023-02-11T10:58:54;25.08;;;12.48;;
70733;SDS011;58320;48.804;9.252;2023-02-11T11:01:38;24.77;;;15.25;;
70733;SDS011;58320;48.804;9.252;2023-02-11T11:07:12;24.77;;;13.88;;
70733;SDS011;58320;48.804;9.252;2023-02-11T11:09:55;20.07;;;12.00;;
70733;SDS011;58320;48.804;9.252;2023-02-11T11:17:35;22.43;;;12.93;;
70733;SDS011;58320;48.804;9.252;2023-02-11T11:23:17;24.75;;;13.10;;
70733;SDS011;58320;48.804;9.252;2023-02-11T11:25:59;16.80;;;10.35;;
70733;SDS011;58320;48.804;9.252;2023-02-11T11:28:36;12.40;;;7.70;;
70733;SDS011;58320;48.804;9.252;2023-02-11T11:31:24;14.20;;;9.20;;
70733;SDS011;58320;48.804;9.252;2023-02-11T11:33:58;13.25;;;9.15;;
70733;SDS011;58320;48.804;9.252;2023-02-11T11:36:32;13.50;;;9.10;;
70733;SDS011;58320;48.804;9.252;2023-02-11T11:39:24;13.05;;;9.15;;
70733;SDS011;58320;48.804;9.252;2023-02-11T11:41:57;12.20;;;8.65;;
70733;SDS011;58320;48.804;9.252;2023-02-11T11:49:47;13.00;;;8.57;;
70733;SDS011;58320;48.804;9.252;2023-02-11T11:55:24;11.75;;;7.05;;
70733;SDS011;58320;48.804;9.252;2023-02-11T11:58:14;11.27;;;8.17;;
70733;SDS011;58320;48.804;9.252;2023-02-11T12:17:50;14.43;;;8.20;;
70733;SDS011;58320;48.804;9.252;2023-02-11T12:26:19;9.93;;;6.30;;
70733;SDS011;58320;48.804;9.252;2023-02-11T12:32:34;11.20;;;6.88;;
70733;SDS011;58320;48.804;9.252;2023-02-11T12:49:04;9.45;;;6.10;;
70733;SDS011;58320;48.804;9.252;2023-02-11T12:57:25;11.15;;;6.28;;
70733;SDS011;58320;48.804;9.252;2023-02-11T13:02:52;13.88;;;7.60;;
70733;SDS011;58320;48.804;9.252;2023-02-11T13:08:15;12.27;;;6.40;;
70733;SDS011;58320;48.804;9.252;2023-02-11T13:10:59;14.05;;;7.93;;
70733;SDS011;58320;48.804;9.252;2023-02-11T13:13:38;14.57;;;8.43;;
70733;SDS011;58320;48.804;9.252;2023-02-11T13:21:46;14.87;;;7.73;;
70733;SDS011;58320;48.804;9.252;2023-02-11T13:24:38;15.13;;;8.45;;
70733;SDS011;58320;48.804;9.252;2023-02-11T13:38:02;15.60;;;8.95;;
70733;SDS011;58320;48.804;9.252;2023-02-11T13:40:41;20.95;;;10.88;;
70733;SDS011;58320;48.804;9.252;2023-02-11T13:43:19;20.52;;;9.68;;
70733;SDS011;58320;48.804;9.252;2023-02-11T13:45:48;16.58;;;9.77;;
70733;SDS011;58320;48.804;9.252;2023-02-11T13:48:21;18.00;;;9.50;;
70733;SDS011;58320;48.804;9.252;2023-02-11T13:50:50;20.58;;;10.65;;
70733;SDS011;58320;48.804;9.252;2023-02-11T13:53:23;19.30;;;9.82;;
70733;SDS011;58320;48.804;9.252;2023-02-11T13:55:50;19.17;;;10.13;;
70733;SDS011;58320;48.804;9.252;2023-02-11T14:01:01;21.57;;;10.93;;
70733;SDS011;58320;48.804;9.252;2023-02-11T14:03:34;20.42;;;10.18;;
70733;SDS011;58320;48.804;9.252;2023-02-11T14:06:22;19.63;;;10.32;;
70733;SDS011;58320;48.804;9.252;2023-02-11T14:19:31;18.65;;;10.32;;
70733;SDS011;58320;48.804;9.252;2023-02-11T14:25:40;21.33;;;10.60;;
70733;SDS011;58320;48.804;9.252;2023-02-11T14:39:13;22.77;;;10.90;;
70733;SDS011;58320;48.804;9.252;2023-02-11T14:41:43;19.73;;;10.63;;
70733;SDS011;58320;48.804;9.252;2023-02-11T14:44:17;20.65;;;10.50;;
70733;SDS011;58320;48.804;9.252;2023-02-11T14:46:47;20.23;;;10.98;;
70733;SDS011;58320;48.804;9.252;2023-02-11T14:49:35;19.10;;;9.80;;
70733;SDS011;58320;48.804;9.252;2023-02-11T14:52:15;18.57;;;10.03;;
70733;SDS011;58320;48.804;9.252;2023-02-11T14:54:53;16.38;;;9.82;;
70733;SDS011;58320;48.804;9.252;2023-02-11T14:58:06;19.52;;;10.32;;
70733;SDS011;58320;48.804;9.252;2023-02-11T15:03:35;19.88;;;11.00;;
70733;SDS011;58320;48.804;9.252;2023-02-11T15:06:20;16.43;;;10.50;;
70733;SDS011;58320;48.804;9.252;2023-02-11T15:11:48;19.10;;;11.07;;
70733;SDS011;58320;48.804;9.252;2023-02-11T15:14:22;18.17;;;10.60;;
70733;SDS011;58320;48.804;9.252;2023-02-11T15:16:54;17.33;;;10.38;;
70733;SDS011;58320;48.804;9.252;2023-02-11T15:22:03;16.73;;;9.95;;
70733;SDS011;58320;48.804;9.252;2023-02-11T15:24:34;16.77;;;9.90;;
70733;SDS011;58320;48.804;9.252;2023-02-11T15:27:09;17.33;;;9.82;;
70733;SDS011;58320;48.804;9.252;2023-02-11T15:29:43;16.17;;;9.70;;
70733;SDS011;58320;48.804;9.252;2023-02-11T15:32:19;17.33;;;10.07;;
70733;SDS011;58320;48.804;9.252;2023-02-11T15:34:50;16.58;;;9.20;;
70733;SDS011;58320;48.804;9.252;2023-02-11T15:39:47;18.90;;;10.45;;
70733;SDS011;58320;48.804;9.252;2023-02-11T15:42:17;21.10;;;10.53;;
70733;SDS011;58320;48.804;9.252;2023-02-11T15:44:44;16.13;;;10.23;;
70733;SDS011;58320;48.804;9.252;2023-02-11T15:47:20;14.75;;;9.30;;
70733;SDS011;58320;48.804;9.252;2023-02-11T15:49:46;16.88;;;10.60;;
70733;SDS011;58320;48.804;9.252;2023-02-11T15:52:13;18.42;;;10.73;;
70733;SDS011;58320;48.804;9.252;2023-02-11T15:54:48;16.00;;;9.30;;
70733;SDS011;58320;48.804;9.252;2023-02-11T15:57:15;18.58;;;10.95;;
70733;SDS011;58320;48.804;9.252;2023-02-11T15:59:44;17.67;;;10.63;;
70733;SDS011;58320;48.804;9.252;2023-02-11T16:02:33;17.08;;;10.35;;
70733;SDS011;58320;48.804;9.252;2023-02-11T16:05:05;19.75;;;10.65;;
70733;SDS011;58320;48.804;9.252;2023-02-11T16:07:37;18.50;;;10.73;;
70733;SDS011;58320;48.804;9.252;2023-02-11T16:12:53;19.60;;;10.68;;
70733;SDS011;58320;48.804;9.252;2023-02-11T16:15:50;23.23;;;10.95;;
70733;SDS011;58320;48.804;9.252;2023-02-11T16:20:49;21.23;;;11.47;;
70733;SDS011;58320;48.804;9.252;2023-02-11T16:23:23;23.25;;;11.05;;
70733;SDS011;58320;48.804;9.252;2023-02-11T16:26:35;19.50;;;11.10;;
70733;SDS011;58320;48.804;9.252;2023-02-11T16:29:10;24.52;;;12.45;;
70733;SDS011;58320;48.804;9.252;2023-02-11T16:31:40;22.70;;;12.15;;
70733;SDS011;58320;48.804;9.252;2023-02-11T16:34:13;26.00;;;12.73;;
70733;SDS011;58320;48.804;9.252;2023-02-11T16:36:45;25.70;;;13.18;;
70733;SDS011;58320;48.804;9.252;2023-02-11T16:39:12;23.90;;;12.93;;
70733;SDS011;58320;48.804;9.252;2023-02-11T16:41:38;22.52;;;12.73;;
70733;SDS011;58320;48.804;9.252;2023-02-11T16:44:04;22.15;;;12.57;;
70733;SDS011;58320;48.804;9.252;2023-02-11T16:46:30;24.63;;;13.30;;
70733;SDS011;58320;48.804;9.252;2023-02-11T16:48:56;23.55;;;12.60;;
70733;SDS011;58320;48.804;9.252;2023-02-11T16:51:31;21.73;;;12.57;;
70733;SDS011;58320;48.804;9.252;2023-02-11T16:53:57;23.27;;;12.57;;
70733;SDS011;58320;48.804;9.252;2023-02-11T16:56:22;26.40;;;12.88;;
70733;SDS011;58320;48.804;9.252;2023-02-11T16:58:48;23.43;;;13.07;;
70733;SDS011;58320;48.804;9.252;2023-02-11T17:01:14;21.75;;;12.82;;
70733;SDS011;58320;48.804;9.252;2023-02-11T17:03:41;27.20;;;13.80;;
70733;SDS011;58320;48.804;9.252;2023-02-11T17:06:10;25.45;;;14.05;;
70733;SDS011;58320;48.804;9.252;2023-02-11T17:08:37;25.93;;;14.13;;
70733;SDS011;58320;48.804;9.252;2023-02-11T17:11:04;25.63;;;13.00;;
70733;SDS011;58320;48.804;9.252;2023-02-11T17:13:30;23.23;;;13.00;;
70733;SDS011;58320;48.804;9.252;2023-02-11T17:15:56;22.63;;;12.75;;
70733;SDS011;58320;48.804;9.252;2023-02-11T17:18:22;22.57;;;12.70;;
70733;SDS011;58320;48.804;9.252;2023-02-11T17:20:48;22.33;;;12.70;;
70733;SDS011;58320;48.804;9.252;2023-02-11T17:23:13;24.05;;;13.32;;
70733;SDS011;58320;48.804;9.252;2023-02-11T17:25:39;23.07;;;13.33;;
70733;SDS011;58320;48.804;9.252;2023-02-11T17:28:05;20.65;;;12.07;;
70733;SDS011;58320;48.804;9.252;2023-02-11T17:30:33;27.92;;;14.07;;
70733;SDS011;58320;48.804;9.252;2023-02-11T17:32:59;21.23;;;12.07;;
70733;SDS011;58320;48.804;9.252;2023-02-11T17:35:26;25.90;;;14.20;;
70733;SDS011;58320;48.804;9.252;2023-02-11T17:37:51;25.40;;;13.43;;
70733;SDS011;58320;48.804;9.252;2023-02-11T17:40:18;23.88;;;12.75;;
70733;SDS011;58320;48.804;9.252;2023-02-11T17:42:43;25.17;;;13.23;;
70733;SDS011;58320;48.804;9.252;2023-02-11T17:45:09;24.40;;;13.80;;
70733;SDS011;58320;48.804;9.252;2023-02-11T17:47:37;27.48;;;14.25;;
70733;SDS011;58320;48.804;9.252;2023-02-11T17:50:02;24.23;;;14.70;;
70733;SDS011;58320;48.804;9.252;2023-02-11T17:52:29;26.05;;;13.27;;
70733;SDS011;58320;48.804;9.252;2023-02-11T17:54:55;27.48;;;14.88;;